createdAt,value
2018-07-27T00:01:19.793Z,3.50
2018-07-27T00:03:48.295Z,3.90
2018-07-27T00:06:16.826Z,3.87
2018-07-27T00:08:45.361Z,3.90
2018-07-27T00:11:13.946Z,4.03
2018-07-27T00:13:42.392Z,4.93
2018-07-27T00:16:10.929Z,3.60
2018-07-27T00:18:39.439Z,4.13
2018-07-27T00:21:08.064Z,4.27
2018-07-27T00:23:36.678Z,3.70
2018-07-27T00:26:04.842Z,4.07
2018-07-27T00:28:33.398Z,4.23
2018-07-27T00:31:01.972Z,4.50
2018-07-27T00:33:36.944Z,4.40
2018-07-27T00:36:11.365Z,3.90
2018-07-27T00:38:39.851Z,3.40
2018-07-27T00:41:08.357Z,4.07
2018-07-27T00:43:36.839Z,4.30
2018-07-27T00:46:05.671Z,4.40
2018-07-27T00:48:34.204Z,4.00
2018-07-27T00:51:02.712Z,4.60
2018-07-27T00:53:31.181Z,4.13
2018-07-27T00:55:59.628Z,4.10
2018-07-27T00:58:28.147Z,3.60
2018-07-27T01:00:56.635Z,4.10
2018-07-27T01:03:25.138Z,4.23
2018-07-27T01:05:53.761Z,3.47
2018-07-27T01:08:22.274Z,4.63
2018-07-27T01:10:50.804Z,3.83
2018-07-27T01:13:19.271Z,4.27
2018-07-27T01:15:47.798Z,4.47
2018-07-27T01:18:16.272Z,4.17
2018-07-27T01:20:44.860Z,3.70
2018-07-27T01:23:13.327Z,4.83
2018-07-27T01:25:41.847Z,4.50
2018-07-27T01:28:10.390Z,3.67
2018-07-27T01:30:38.928Z,3.57
2018-07-27T01:33:07.407Z,3.90
2018-07-27T01:35:35.907Z,4.10
2018-07-27T01:38:04.406Z,4.80
2018-07-27T01:40:32.907Z,4.30
2018-07-27T01:43:01.380Z,3.90
2018-07-27T01:45:29.871Z,4.10
2018-07-27T01:47:58.425Z,4.47
2018-07-27T01:50:26.950Z,4.50
2018-07-27T01:52:55.554Z,4.33
2018-07-27T01:55:24.024Z,4.30
2018-07-27T01:57:52.489Z,4.90
2018-07-27T02:00:20.976Z,4.03
2018-07-27T02:02:49.437Z,4.90
2018-07-27T02:05:17.946Z,4.53
2018-07-27T02:07:46.441Z,4.70
2018-07-27T02:10:14.952Z,4.37
2018-07-27T02:12:43.550Z,4.60
2018-07-27T02:15:12.024Z,4.63
2018-07-27T02:17:40.572Z,4.20
2018-07-27T02:20:09.144Z,4.27
2018-07-27T02:22:37.641Z,4.43
2018-07-27T02:25:06.257Z,3.30
2018-07-27T02:27:34.741Z,4.87
2018-07-27T02:30:03.293Z,4.50
2018-07-27T02:32:31.804Z,3.70
2018-07-27T02:35:00.291Z,3.90
2018-07-27T02:37:28.796Z,4.90
2018-07-27T02:39:57.304Z,5.07
2018-07-27T02:42:25.847Z,4.37
2018-07-27T02:44:54.330Z,5.00
2018-07-27T02:47:22.891Z,4.87
2018-07-27T02:49:51.386Z,4.67
2018-07-27T02:52:19.924Z,4.10
2018-07-27T02:54:48.618Z,4.70
2018-07-27T02:57:17.115Z,4.93
2018-07-27T02:59:45.583Z,4.43
2018-07-27T03:02:14.096Z,4.40
2018-07-27T03:04:42.611Z,4.90
2018-07-27T03:07:11.146Z,4.40
2018-07-27T03:09:39.648Z,4.37
2018-07-27T03:12:08.103Z,4.10
2018-07-27T03:14:36.579Z,3.80
2018-07-27T03:17:05.889Z,4.47
2018-07-27T03:19:34.360Z,4.33
2018-07-27T03:22:02.924Z,4.10
2018-07-27T03:24:31.480Z,4.30
2018-07-27T03:27:00.065Z,4.70
2018-07-27T03:29:28.531Z,4.83
2018-07-27T03:31:57.072Z,4.60
2018-07-27T03:34:25.594Z,3.97
2018-07-27T03:36:54.117Z,4.73
2018-07-27T03:39:22.586Z,5.00
2018-07-27T03:41:51.087Z,4.83
2018-07-27T03:44:19.618Z,4.60
2018-07-27T03:46:48.111Z,4.47
2018-07-27T03:49:16.620Z,4.57
2018-07-27T03:51:45.175Z,3.77
2018-07-27T03:54:13.682Z,3.77
2018-07-27T03:56:42.216Z,4.57
2018-07-27T03:59:10.718Z,4.87
2018-07-27T04:01:39.214Z,4.60
2018-07-27T04:04:07.765Z,4.67
2018-07-27T04:06:36.271Z,4.47
2018-07-27T04:09:07.354Z,4.50
2018-07-27T04:11:35.900Z,4.77
2018-07-27T04:14:04.445Z,4.67
2018-07-27T04:16:33.014Z,4.97
2018-07-27T04:19:01.838Z,4.63
2018-07-27T04:21:30.311Z,5.07
2018-07-27T04:23:58.789Z,4.80
2018-07-27T04:26:27.367Z,4.77
2018-07-27T04:28:55.840Z,4.73
2018-07-27T04:31:24.395Z,4.40
2018-07-27T04:33:54.720Z,4.90
2018-07-27T04:36:23.212Z,4.60
2018-07-27T04:38:51.753Z,4.33
2018-07-27T04:41:20.240Z,4.30
2018-07-27T04:43:48.748Z,5.40
2018-07-27T04:46:17.222Z,4.67
2018-07-27T04:48:45.697Z,4.90
2018-07-27T04:51:14.234Z,4.97
2018-07-27T04:53:42.722Z,5.93
2018-07-27T04:56:11.307Z,5.70
2018-07-27T04:58:39.726Z,4.30
2018-07-27T05:01:07.897Z,4.50
2018-07-27T05:03:36.365Z,5.10
2018-07-27T05:06:04.993Z,5.63
2018-07-27T05:08:37.642Z,4.90
2018-07-27T05:11:06.896Z,5.00
2018-07-27T05:13:35.430Z,5.57
2018-07-27T05:16:03.895Z,5.10
2018-07-27T05:18:32.442Z,5.50
2018-07-27T05:21:00.937Z,5.93
2018-07-27T05:23:29.418Z,5.10
2018-07-27T05:25:57.907Z,4.90
2018-07-27T05:28:26.401Z,5.43
2018-07-27T05:30:54.910Z,5.07
2018-07-27T05:33:23.367Z,4.60
2018-07-27T05:35:51.863Z,5.53
2018-07-27T05:38:20.326Z,5.03
2018-07-27T05:40:48.876Z,5.13
2018-07-27T05:43:17.394Z,4.90
2018-07-27T05:45:45.993Z,5.60
2018-07-27T05:48:14.449Z,5.87
2018-07-27T05:50:42.978Z,6.00
2018-07-27T05:53:11.486Z,5.87
2018-07-27T05:55:40.094Z,6.20
2018-07-27T05:58:08.766Z,5.63
2018-07-27T06:00:37.259Z,5.47
2018-07-27T06:03:05.803Z,5.73
2018-07-27T06:05:34.363Z,6.33
2018-07-27T06:08:02.851Z,4.90
2018-07-27T06:10:31.316Z,5.57
2018-07-27T06:12:59.907Z,5.43
2018-07-27T06:15:28.367Z,5.73
2018-07-27T06:17:56.924Z,5.40
2018-07-27T06:20:25.422Z,5.70
2018-07-27T06:22:53.959Z,5.80
2018-07-27T06:25:22.476Z,5.07
2018-07-27T06:27:51.217Z,4.80
2018-07-27T06:30:19.697Z,5.20
2018-07-27T06:32:48.286Z,4.90
2018-07-27T06:35:16.976Z,5.20
2018-07-27T06:37:45.587Z,4.60
2018-07-27T06:40:14.275Z,4.30
2018-07-27T06:42:42.766Z,4.00
2018-07-27T06:45:11.337Z,4.40
2018-07-27T06:47:39.787Z,3.67
2018-07-27T06:50:08.312Z,4.20
2018-07-27T06:52:36.816Z,3.70
2018-07-27T06:55:05.366Z,3.73
2018-07-27T06:57:33.861Z,3.53
2018-07-27T07:00:02.351Z,3.80
2018-07-27T07:02:31.054Z,3.47
2018-07-27T07:04:59.515Z,3.33
2018-07-27T07:07:27.995Z,3.40
2018-07-27T07:09:56.498Z,3.50
2018-07-27T07:12:25.042Z,3.27
2018-07-27T07:14:53.553Z,3.63
2018-07-27T07:17:22.066Z,3.80
2018-07-27T07:19:50.639Z,3.77
2018-07-27T07:22:19.211Z,3.80
2018-07-27T07:24:47.743Z,3.67
2018-07-27T07:27:16.255Z,3.57
2018-07-27T07:29:44.803Z,3.90
2018-07-27T07:32:13.294Z,4.57
2018-07-27T07:34:41.856Z,3.63
2018-07-27T07:37:10.440Z,3.43
2018-07-27T07:39:38.915Z,3.43
2018-07-27T07:42:07.471Z,3.80
2018-07-27T07:44:35.987Z,4.60
2018-07-27T07:47:04.474Z,3.50
2018-07-27T07:49:32.997Z,4.33
2018-07-27T07:52:01.494Z,4.10
2018-07-27T07:54:30.030Z,4.03
2018-07-27T07:56:58.614Z,3.97
2018-07-27T07:59:27.192Z,3.83
2018-07-27T08:01:55.698Z,3.73
2018-07-27T08:04:24.251Z,4.10
2018-07-27T08:06:52.727Z,4.10
2018-07-27T08:09:21.252Z,3.97
2018-07-27T08:11:49.743Z,3.63
2018-07-27T08:14:18.270Z,3.93
2018-07-27T08:16:46.957Z,4.27
2018-07-27T08:19:15.532Z,3.97
2018-07-27T08:21:44.022Z,3.97
2018-07-27T08:24:12.512Z,3.40
2018-07-27T08:26:44.434Z,3.80
2018-07-27T08:29:14.159Z,2.93
2018-07-27T08:31:43.584Z,3.57
2018-07-27T08:34:12.835Z,3.27
2018-07-27T08:36:41.403Z,3.30
2018-07-27T08:39:12.466Z,3.80
2018-07-27T08:41:41.915Z,3.50
2018-07-27T08:44:11.482Z,3.50
2018-07-27T08:46:40.093Z,3.27
2018-07-27T08:49:09.019Z,3.60
2018-07-27T08:51:37.643Z,3.70
2018-07-27T08:54:06.251Z,3.63
2018-07-27T08:56:34.741Z,3.70
2018-07-27T08:59:03.314Z,3.60
2018-07-27T09:01:31.845Z,3.03
2018-07-27T09:04:00.401Z,3.70
2018-07-27T09:06:28.940Z,2.80
2018-07-27T09:08:57.579Z,3.40
2018-07-27T09:11:26.104Z,3.07
2018-07-27T09:13:55.402Z,3.70
2018-07-27T09:16:24.131Z,3.47
2018-07-27T09:18:53.696Z,4.00
2018-07-27T09:21:22.316Z,3.40
2018-07-27T09:23:50.814Z,4.10
2018-07-27T09:26:19.346Z,3.17
2018-07-27T09:28:47.846Z,3.40
2018-07-27T09:31:16.457Z,3.30
2018-07-27T09:33:44.957Z,3.03
2018-07-27T09:36:13.506Z,3.90
2018-07-27T09:38:42.024Z,3.33
2018-07-27T09:41:10.647Z,4.00
2018-07-27T09:43:39.165Z,3.20
2018-07-27T09:46:07.835Z,4.00
2018-07-27T09:48:36.491Z,3.87
2018-07-27T09:51:05.179Z,3.30
2018-07-27T09:53:33.773Z,3.60
2018-07-27T09:56:02.326Z,3.13
2018-07-27T09:58:31.174Z,3.63
2018-07-27T10:01:05.282Z,3.80
2018-07-27T10:03:33.770Z,3.50
2018-07-27T10:06:02.452Z,3.60
2018-07-27T10:08:31.029Z,3.10
2018-07-27T10:10:59.535Z,3.37
2018-07-27T10:13:28.072Z,3.67
2018-07-27T10:15:56.635Z,3.90
2018-07-27T10:18:25.163Z,3.73
2018-07-27T10:20:54.025Z,4.10
2018-07-27T10:23:22.503Z,3.90
2018-07-27T10:25:51.180Z,3.50
2018-07-27T10:28:19.698Z,3.93
2018-07-27T10:30:48.226Z,3.40
2018-07-27T10:33:16.728Z,4.00
2018-07-27T10:35:45.300Z,3.33
2018-07-27T10:38:13.836Z,4.00
2018-07-27T10:40:42.347Z,3.77
2018-07-27T10:43:10.614Z,5.10
2018-07-27T10:45:39.233Z,4.53
2018-07-27T10:48:07.748Z,4.50
2018-07-27T10:50:37.180Z,4.40
2018-07-27T10:53:05.726Z,4.17
2018-07-27T10:55:34.919Z,4.40
2018-07-27T10:58:03.452Z,3.63
2018-07-27T11:00:32.072Z,4.67
2018-07-27T11:03:00.614Z,3.70
2018-07-27T11:05:29.090Z,3.97
2018-07-27T11:07:57.575Z,4.37
2018-07-27T11:10:26.114Z,3.80
2018-07-27T11:12:54.641Z,4.43
2018-07-27T11:15:23.164Z,4.97
2018-07-27T11:17:51.839Z,4.37
2018-07-27T11:20:20.232Z,4.43
2018-07-27T11:22:48.724Z,3.83
2018-07-27T11:25:17.237Z,4.10
2018-07-27T11:27:45.710Z,4.10
2018-07-27T11:30:14.252Z,3.60
2018-07-27T11:32:42.763Z,4.83
2018-07-27T11:35:11.306Z,4.43
2018-07-27T11:37:39.834Z,4.80
2018-07-27T11:40:08.338Z,5.20
2018-07-27T11:42:36.932Z,5.00
2018-07-27T11:45:05.482Z,4.80
2018-07-27T11:47:33.989Z,5.13
2018-07-27T11:50:02.486Z,5.10
2018-07-27T11:52:31.194Z,4.77
2018-07-27T11:54:59.848Z,4.70
2018-07-27T11:57:28.374Z,4.60
2018-07-27T11:59:56.951Z,4.93
2018-07-27T12:02:25.490Z,4.47
2018-07-27T12:04:54.019Z,4.57
2018-07-27T12:07:22.590Z,4.80
2018-07-27T12:09:51.134Z,4.80
2018-07-27T12:12:19.626Z,4.97
2018-07-27T12:14:48.213Z,4.90
2018-07-27T12:17:16.787Z,5.20
2018-07-27T12:19:45.306Z,5.00
2018-07-27T12:22:13.815Z,4.90
2018-07-27T12:24:42.305Z,4.63
2018-07-27T12:27:10.863Z,4.40
2018-07-27T12:29:39.327Z,4.80
2018-07-27T12:32:07.855Z,5.47
2018-07-27T12:34:36.414Z,5.50
2018-07-27T12:37:04.918Z,4.73
2018-07-27T12:39:33.483Z,4.80
2018-07-27T12:42:01.954Z,4.20
2018-07-27T12:44:30.487Z,5.80
2018-07-27T12:46:59.020Z,4.40
2018-07-27T12:49:27.587Z,4.83
2018-07-27T12:51:56.181Z,5.10
2018-07-27T12:54:24.683Z,4.73
2018-07-27T12:56:53.154Z,4.70
2018-07-27T12:59:21.686Z,6.00
2018-07-27T13:01:50.172Z,5.07
2018-07-27T13:04:18.658Z,4.33
2018-07-27T13:06:47.157Z,5.20
2018-07-27T13:09:15.672Z,4.60
2018-07-27T13:11:44.131Z,4.27
2018-07-27T13:14:12.622Z,4.87
2018-07-27T13:16:41.277Z,4.20
2018-07-27T13:19:12.295Z,4.93
2018-07-27T13:21:40.849Z,4.17
2018-07-27T13:24:09.297Z,4.20
2018-07-27T13:26:37.910Z,4.53
2018-07-27T13:29:09.386Z,5.10
2018-07-27T13:31:50.508Z,4.33
2018-07-27T13:34:39.808Z,4.43
2018-07-27T13:37:08.445Z,4.50
2018-07-27T13:39:37.525Z,5.07
2018-07-27T13:42:07.136Z,4.73
2018-07-27T13:44:36.832Z,4.33
2018-07-27T13:47:06.054Z,5.23
2018-07-27T13:49:34.584Z,4.77
2018-07-27T13:52:03.060Z,4.70
2018-07-27T13:54:32.551Z,4.53
2018-07-27T13:57:01.300Z,4.40
2018-07-27T13:59:29.758Z,5.23
2018-07-27T14:01:58.658Z,4.93
2018-07-27T14:04:27.908Z,4.70
2018-07-27T14:06:57.795Z,4.47
2018-07-27T14:09:26.296Z,5.13
2018-07-27T14:11:54.834Z,5.40
2018-07-27T14:14:23.420Z,5.60
2018-07-27T14:16:51.895Z,5.47
2018-07-27T14:19:20.825Z,5.00
2018-07-27T14:21:49.341Z,5.00
2018-07-27T14:24:17.965Z,5.23
2018-07-27T14:26:46.555Z,5.20
2018-07-27T14:29:15.140Z,5.70
2018-07-27T14:31:43.617Z,5.50
2018-07-27T14:34:12.160Z,5.10
2018-07-27T14:36:40.732Z,5.43
2018-07-27T14:39:11.349Z,4.93
2018-07-27T14:41:39.935Z,5.87
2018-07-27T14:44:08.578Z,5.33
2018-07-27T14:46:37.525Z,5.50
2018-07-27T14:49:09.766Z,5.23
2018-07-27T14:51:38.653Z,6.17
2018-07-27T14:54:08.461Z,5.20
2018-07-27T14:56:37.279Z,5.70
2018-07-27T14:59:06.242Z,5.70
2018-07-27T15:01:35.778Z,5.73
2018-07-27T15:04:04.504Z,5.90
2018-07-27T15:06:33.007Z,5.20
2018-07-27T15:09:01.716Z,5.63
2018-07-27T15:11:30.311Z,5.00
2018-07-27T15:13:59.024Z,5.40
2018-07-27T15:16:27.667Z,5.60
2018-07-27T15:18:56.174Z,5.40
2018-07-27T15:21:24.933Z,5.60
2018-07-27T15:23:53.499Z,5.53
2018-07-27T15:26:22.161Z,4.73
2018-07-27T15:28:50.875Z,4.87
2018-07-27T15:31:19.327Z,5.50
2018-07-27T15:33:47.810Z,5.60
2018-07-27T15:36:16.360Z,5.33
2018-07-27T15:38:44.814Z,4.80
2018-07-27T15:41:13.268Z,4.83
2018-07-27T15:43:41.746Z,4.37
2018-07-27T15:46:10.271Z,4.80
2018-07-27T15:48:38.755Z,4.80
2018-07-27T15:51:07.445Z,5.33
2018-07-27T15:53:36.056Z,5.20
2018-07-27T15:56:04.638Z,4.80
2018-07-27T15:58:33.139Z,4.90
2018-07-27T16:01:01.577Z,4.87
2018-07-27T16:03:30.089Z,5.03
2018-07-27T16:05:58.566Z,5.60
2018-07-27T16:08:27.102Z,4.77
2018-07-27T16:10:56.450Z,5.47
2018-07-27T16:13:25.010Z,4.90
2018-07-27T16:15:53.512Z,5.30
2018-07-27T16:18:22.007Z,4.40
2018-07-27T16:20:50.550Z,5.40
2018-07-27T16:23:19.051Z,4.83
2018-07-27T16:25:47.579Z,5.87
2018-07-27T16:28:16.067Z,5.23
2018-07-27T16:30:44.673Z,4.90
2018-07-27T16:33:13.172Z,5.00
2018-07-27T16:35:41.747Z,4.60
2018-07-27T16:38:10.330Z,4.67
2018-07-27T16:40:39.105Z,5.03
2018-07-27T16:43:07.624Z,4.70
2018-07-27T16:45:36.198Z,5.00
2018-07-27T16:48:04.780Z,5.47
2018-07-27T16:50:33.691Z,4.67
2018-07-27T16:53:01.856Z,4.57
2018-07-27T16:55:30.392Z,5.13
2018-07-27T16:57:58.911Z,5.63
2018-07-27T17:00:27.462Z,6.17
2018-07-27T17:02:55.979Z,5.23
2018-07-27T17:05:24.487Z,5.23
2018-07-27T17:07:55.763Z,4.90
2018-07-27T17:10:24.478Z,4.73
2018-07-27T17:12:53.009Z,5.30
2018-07-27T17:15:21.961Z,6.10
2018-07-27T17:17:50.421Z,5.20
2018-07-27T17:20:18.941Z,6.00
2018-07-27T17:22:47.430Z,5.20
2018-07-27T17:25:15.973Z,5.43
2018-07-27T17:27:44.603Z,5.73
2018-07-27T17:30:13.140Z,5.37
2018-07-27T17:32:41.663Z,5.73
2018-07-27T17:35:10.225Z,5.27
2018-07-27T17:37:38.684Z,5.73
2018-07-27T17:40:08.455Z,5.50
2018-07-27T17:42:36.969Z,6.53
2018-07-27T17:45:06.679Z,6.20
2018-07-27T17:47:35.202Z,5.27
2018-07-27T17:50:03.781Z,5.50
2018-07-27T17:52:32.341Z,5.47
2018-07-27T17:55:00.927Z,6.20
2018-07-27T17:57:29.494Z,6.03
2018-07-27T17:59:57.992Z,5.53
2018-07-27T18:02:26.595Z,5.20
2018-07-27T18:04:55.051Z,5.13
2018-07-27T18:07:23.680Z,5.00
2018-07-27T18:09:52.334Z,4.60
2018-07-27T18:12:20.827Z,4.50
2018-07-27T18:14:49.322Z,4.50
2018-07-27T18:17:17.919Z,5.20
2018-07-27T18:19:46.414Z,4.60
2018-07-27T18:22:14.890Z,5.13
2018-07-27T18:24:43.449Z,4.67
2018-07-27T18:27:11.990Z,5.50
2018-07-27T18:29:40.782Z,5.20
2018-07-27T18:32:09.350Z,5.90
2018-07-27T18:34:37.926Z,4.77
2018-07-27T18:37:06.549Z,4.60
2018-07-27T18:39:35.079Z,5.50
2018-07-27T18:42:03.543Z,4.30
2018-07-27T18:44:32.039Z,4.40
2018-07-27T18:47:00.572Z,4.93
2018-07-27T18:49:29.143Z,5.00
2018-07-27T18:51:57.313Z,5.17
2018-07-27T18:54:25.939Z,5.10
2018-07-27T18:56:54.520Z,5.50
2018-07-27T18:59:23.043Z,5.43
2018-07-27T19:01:51.749Z,4.97
2018-07-27T19:04:20.338Z,4.47
2018-07-27T19:06:48.819Z,4.30
2018-07-27T19:09:17.302Z,5.00
2018-07-27T19:11:45.838Z,5.00
2018-07-27T19:14:14.339Z,4.80
2018-07-27T19:16:42.999Z,4.80
2018-07-27T19:19:11.528Z,5.00
2018-07-27T19:21:40.075Z,5.17
2018-07-27T19:24:08.722Z,5.40
2018-07-27T19:26:37.278Z,5.17
2018-07-27T19:29:05.833Z,4.63
2018-07-27T19:31:34.367Z,5.77
2018-07-27T19:34:02.925Z,5.20
2018-07-27T19:36:31.523Z,5.30
2018-07-27T19:39:00.031Z,5.60
2018-07-27T19:41:28.601Z,5.23
2018-07-27T19:43:57.327Z,5.23
2018-07-27T19:46:26.050Z,5.30
2018-07-27T19:48:54.653Z,4.80
2018-07-27T19:51:23.267Z,4.40
2018-07-27T19:53:51.816Z,4.80
2018-07-27T19:56:20.316Z,4.20
2018-07-27T19:58:48.797Z,4.43
2018-07-27T20:01:17.495Z,4.97
2018-07-27T20:03:46.056Z,4.83
2018-07-27T20:06:14.574Z,4.40
2018-07-27T20:08:43.123Z,4.73
2018-07-27T20:11:12.602Z,4.57
2018-07-27T20:13:41.173Z,4.97
2018-07-27T20:16:09.811Z,3.90
2018-07-27T20:18:38.309Z,4.13
2018-07-27T20:21:06.866Z,4.30
2018-07-27T20:23:35.367Z,4.37
2018-07-27T20:26:03.862Z,4.70
2018-07-27T20:28:32.422Z,4.70
2018-07-27T20:31:00.911Z,4.37
2018-07-27T20:33:29.386Z,4.53
2018-07-27T20:35:57.882Z,4.27
2018-07-27T20:38:26.386Z,4.90
2018-07-27T20:40:55.287Z,4.43
2018-07-27T20:43:23.979Z,4.70
2018-07-27T20:45:52.460Z,4.63
2018-07-27T20:48:20.997Z,4.33
2018-07-27T20:50:49.483Z,4.53
2018-07-27T20:53:18.022Z,4.50
2018-07-27T20:55:46.551Z,4.50
2018-07-27T20:58:15.115Z,5.40
2018-07-27T21:00:43.598Z,4.87
2018-07-27T21:03:12.150Z,4.87
2018-07-27T21:05:40.643Z,5.60
2018-07-27T21:08:09.306Z,5.10
2018-07-27T21:10:37.856Z,4.67
2018-07-27T21:13:06.452Z,5.00
2018-07-27T21:15:34.952Z,5.20
2018-07-27T21:18:03.756Z,4.80
2018-07-27T21:20:32.370Z,5.00
2018-07-27T21:23:00.826Z,5.13
2018-07-27T21:25:29.452Z,4.97
2018-07-27T21:27:58.077Z,4.80
2018-07-27T21:30:26.660Z,4.60
2018-07-27T21:32:55.174Z,4.70
2018-07-27T21:35:23.724Z,4.67
2018-07-27T21:37:52.268Z,4.93
2018-07-27T21:40:20.803Z,4.47
2018-07-27T21:42:49.394Z,4.00
2018-07-27T21:45:17.984Z,4.33
2018-07-27T21:47:46.522Z,4.83
2018-07-27T21:50:15.043Z,4.60
2018-07-27T21:52:43.597Z,5.00
2018-07-27T21:55:12.122Z,4.50
2018-07-27T21:57:40.737Z,4.30
2018-07-27T22:00:10.644Z,4.97
2018-07-27T22:02:39.124Z,4.50
2018-07-27T22:05:08.084Z,4.83
2018-07-27T22:07:37.121Z,5.10
2018-07-27T22:10:05.792Z,4.93
2018-07-27T22:12:34.335Z,5.30
2018-07-27T22:15:02.871Z,4.80
2018-07-27T22:17:31.470Z,4.40
2018-07-27T22:19:59.974Z,4.93
2018-07-27T22:22:28.640Z,5.10
2018-07-27T22:24:57.132Z,4.70
2018-07-27T22:27:25.630Z,4.70
2018-07-27T22:29:54.123Z,4.70
2018-07-27T22:32:22.714Z,4.70
2018-07-27T22:34:51.331Z,5.90
2018-07-27T22:37:19.986Z,4.93
2018-07-27T22:39:48.451Z,5.00
2018-07-27T22:42:16.936Z,4.07
2018-07-27T22:44:45.446Z,5.60
2018-07-27T22:47:14.281Z,5.33
2018-07-27T22:49:42.771Z,5.00
2018-07-27T22:52:11.385Z,5.10
2018-07-27T22:54:40.177Z,4.93
2018-07-27T22:57:08.667Z,5.57
2018-07-27T22:59:37.190Z,5.10
2018-07-27T23:02:06.010Z,5.60
2018-07-27T23:04:34.429Z,5.00
2018-07-27T23:07:02.986Z,5.40
2018-07-27T23:09:31.518Z,5.20
2018-07-27T23:12:00.024Z,4.87
2018-07-27T23:14:28.467Z,6.23
2018-07-27T23:16:56.993Z,5.63
2018-07-27T23:19:25.503Z,5.80
2018-07-27T23:21:54.215Z,5.47
2018-07-27T23:24:22.794Z,5.90
2018-07-27T23:26:51.305Z,5.67
2018-07-27T23:29:20.003Z,5.87
2018-07-27T23:31:48.501Z,5.83
2018-07-27T23:34:17.087Z,5.77
2018-07-27T23:36:45.556Z,5.17
2018-07-27T23:39:14.675Z,5.87
2018-07-27T23:41:43.827Z,5.40
2018-07-27T23:44:12.317Z,5.70
2018-07-27T23:46:40.841Z,5.70
2018-07-27T23:49:09.546Z,5.97
2018-07-27T23:51:38.027Z,6.60
2018-07-27T23:54:06.552Z,6.43
2018-07-27T23:56:34.990Z,7.00
2018-07-27T23:59:03.490Z,6.60
